createdAt,value
2018-03-01T00:00:10.811Z,-7.91
2018-03-01T00:02:36.560Z,-7.98
2018-03-01T00:05:02.323Z,-7.97
2018-03-01T00:07:28.093Z,-7.76
2018-03-01T00:09:53.852Z,-7.78
2018-03-01T00:12:19.597Z,-7.85
2018-03-01T00:14:45.359Z,-7.76
2018-03-01T00:17:11.096Z,-7.81
2018-03-01T00:19:36.843Z,-7.85
2018-03-01T00:22:02.635Z,-7.83
2018-03-01T00:24:28.382Z,-7.87
2018-03-01T00:26:54.130Z,-7.74
2018-03-01T00:29:19.894Z,-7.77
2018-03-01T00:31:45.629Z,-7.84
2018-03-01T00:34:11.399Z,-7.91
2018-03-01T00:36:37.149Z,-7.87
2018-03-01T00:39:02.930Z,-7.92
2018-03-01T00:41:28.682Z,-7.87
2018-03-01T00:44:01.438Z,-7.96
2018-03-01T00:46:27.190Z,-7.93
2018-03-01T00:48:52.944Z,-7.94
2018-03-01T00:51:18.711Z,-7.92
2018-03-01T00:53:44.453Z,-7.95
2018-03-01T00:56:10.205Z,-7.94
2018-03-01T00:58:35.953Z,-7.89
2018-03-01T01:01:01.706Z,-7.96
2018-03-01T01:03:27.460Z,-7.86
2018-03-01T01:05:53.219Z,-7.96
2018-03-01T01:08:18.969Z,-7.82
2018-03-01T01:10:44.723Z,-7.90
2018-03-01T01:13:10.466Z,-7.91
2018-03-01T01:15:36.219Z,-7.84
2018-03-01T01:18:01.964Z,-7.87
2018-03-01T01:20:27.721Z,-7.85
2018-03-01T01:22:53.471Z,-7.83
2018-03-01T01:25:19.221Z,-7.82
2018-03-01T01:27:44.981Z,-7.80
2018-03-01T01:30:10.746Z,-7.82
2018-03-01T01:32:36.492Z,-7.73
2018-03-01T01:35:02.251Z,-7.81
2018-03-01T01:37:28.012Z,-7.86
2018-03-01T01:39:53.763Z,-7.78
2018-03-01T01:42:19.515Z,-7.72
2018-03-01T01:44:45.250Z,-7.75
2018-03-01T01:47:11.010Z,-7.86
2018-03-01T01:49:36.757Z,-7.86
2018-03-01T01:52:02.514Z,-7.80
2018-03-01T01:54:28.249Z,-7.81
2018-03-01T01:56:53.989Z,-7.87
2018-03-01T01:59:19.725Z,-7.87
2018-03-01T02:01:45.488Z,-7.84
2018-03-01T02:04:11.266Z,-7.84
2018-03-01T02:06:37.027Z,-7.93
2018-03-01T02:09:02.786Z,-7.93
2018-03-01T02:11:28.554Z,-8.01
2018-03-01T02:13:54.301Z,-7.98
2018-03-01T02:16:20.050Z,-8.05
2018-03-01T02:18:45.803Z,-8.08
2018-03-01T02:21:11.559Z,-8.11
2018-03-01T02:23:37.318Z,-8.05
2018-03-01T02:26:03.058Z,-8.10
2018-03-01T02:28:28.814Z,-8.04
2018-03-01T02:30:54.566Z,-8.15
2018-03-01T02:33:20.334Z,-8.10
2018-03-01T02:35:46.082Z,-8.04
2018-03-01T02:38:11.833Z,-7.99
2018-03-01T02:40:37.592Z,-7.92
2018-03-01T02:43:03.340Z,-7.86
2018-03-01T02:45:29.096Z,-7.88
2018-03-01T02:47:54.846Z,-7.78
2018-03-01T02:50:20.587Z,-7.80
2018-03-01T02:52:46.338Z,-7.73
2018-03-01T02:55:12.077Z,-7.68
2018-03-01T02:57:37.834Z,-7.65
2018-03-01T03:00:03.589Z,-7.57
2018-03-01T03:02:29.328Z,-7.55
2018-03-01T03:04:55.078Z,-7.63
2018-03-01T03:07:20.814Z,-7.60
2018-03-01T03:09:46.569Z,-7.61
2018-03-01T03:12:12.318Z,-7.53
2018-03-01T03:14:38.071Z,-7.65
2018-03-01T03:17:03.809Z,-7.65
2018-03-01T03:19:29.562Z,-7.70
2018-03-01T03:21:55.294Z,-7.68
2018-03-01T03:24:21.058Z,-7.66
2018-03-01T03:26:46.791Z,-7.58
2018-03-01T03:29:12.543Z,-7.59
2018-03-01T03:31:38.288Z,-7.60
2018-03-01T03:34:04.045Z,-7.62
2018-03-01T03:36:29.794Z,-7.60
2018-03-01T03:38:55.557Z,-7.62
2018-03-01T03:41:21.302Z,-7.58
2018-03-01T03:43:47.061Z,-7.54
2018-03-01T03:46:13.774Z,-7.54
2018-03-01T03:48:39.518Z,-7.63
2018-03-01T03:51:05.278Z,-7.60
2018-03-01T03:53:31.023Z,-7.57
2018-03-01T03:55:56.765Z,-7.64
2018-03-01T03:58:22.518Z,-7.62
2018-03-01T04:00:48.276Z,-7.65
2018-03-01T04:03:14.021Z,-7.64
2018-03-01T04:05:39.773Z,-7.62
2018-03-01T04:08:05.514Z,-7.59
2018-03-01T04:10:31.255Z,-7.65
2018-03-01T04:12:56.998Z,-7.63
2018-03-01T04:15:22.758Z,-7.60
2018-03-01T04:17:48.495Z,-7.64
2018-03-01T04:20:20.356Z,-7.65
2018-03-01T04:22:46.098Z,-7.59
2018-03-01T04:25:11.850Z,-7.62
2018-03-01T04:27:37.591Z,-7.56
2018-03-01T04:30:03.362Z,-7.62
2018-03-01T04:32:29.102Z,-7.58
2018-03-01T04:34:54.853Z,-7.56
2018-03-01T04:37:20.589Z,-7.56
2018-03-01T04:39:46.356Z,-7.62
2018-03-01T04:42:12.094Z,-7.57
2018-03-01T04:44:37.860Z,-7.56
2018-03-01T04:47:03.620Z,-7.68
2018-03-01T04:49:29.480Z,-7.65
2018-03-01T04:51:55.225Z,-7.62
2018-03-01T04:54:20.971Z,-7.54
2018-03-01T04:56:46.728Z,-7.61
2018-03-01T04:59:12.476Z,-7.60
2018-03-01T05:01:38.240Z,-7.59
2018-03-01T05:04:04.037Z,-7.58
2018-03-01T05:06:29.737Z,-7.58
2018-03-01T05:08:55.470Z,-7.62
2018-03-01T05:11:21.203Z,-7.46
2018-03-01T05:13:46.931Z,-7.48
2018-03-01T05:16:12.708Z,-7.47
2018-03-01T05:18:38.414Z,-7.44
2018-03-01T05:21:04.175Z,-7.37
2018-03-01T05:23:29.918Z,-7.31
2018-03-01T05:25:55.660Z,-7.17
2018-03-01T05:28:21.394Z,-7.07
2018-03-01T05:30:47.138Z,-7.04
2018-03-01T05:33:12.887Z,-7.04
2018-03-01T05:35:38.614Z,-6.96
2018-03-01T05:38:04.356Z,-6.95
2018-03-01T05:40:30.099Z,-6.94
2018-03-01T05:42:55.848Z,-6.89
2018-03-01T05:45:21.573Z,-6.92
2018-03-01T05:47:47.333Z,-6.91
2018-03-01T05:50:13.060Z,-6.93
2018-03-01T05:52:38.818Z,-6.88
2018-03-01T05:55:04.565Z,-6.83
2018-03-01T05:57:30.307Z,-6.78
2018-03-01T06:00:10.985Z,-6.75
2018-03-01T06:02:36.754Z,-6.72
2018-03-01T06:05:02.478Z,-6.72
2018-03-01T06:07:28.224Z,-6.70
2018-03-01T06:09:53.954Z,-6.67
2018-03-01T06:12:19.706Z,-6.63
2018-03-01T06:14:45.429Z,-6.61
2018-03-01T06:17:11.174Z,-6.64
2018-03-01T06:19:36.907Z,-6.60
2018-03-01T06:22:02.646Z,-6.61
2018-03-01T06:24:28.374Z,-6.61
2018-03-01T06:26:54.101Z,-6.60
2018-03-01T06:29:19.849Z,-6.62
2018-03-01T06:31:45.582Z,-6.61
2018-03-01T06:34:11.325Z,-6.57
2018-03-01T06:36:37.060Z,-6.50
2018-03-01T06:39:02.799Z,-6.57
2018-03-01T06:41:28.522Z,-6.56
2018-03-01T06:43:54.319Z,-6.56
2018-03-01T06:46:20.006Z,-6.57
2018-03-01T06:48:45.738Z,-6.50
2018-03-01T06:51:11.479Z,-6.56
2018-03-01T06:53:37.477Z,-6.54
2018-03-01T06:56:03.214Z,-6.62
2018-03-01T06:58:28.950Z,-6.53
2018-03-01T07:00:54.682Z,-6.47
2018-03-01T07:03:20.419Z,-6.42
2018-03-01T07:05:46.173Z,-6.38
2018-03-01T07:08:11.897Z,-6.35
2018-03-01T07:10:37.633Z,-6.40
2018-03-01T07:13:03.366Z,-6.33
2018-03-01T07:15:29.107Z,-6.22
2018-03-01T07:17:54.842Z,-6.07
2018-03-01T07:20:20.588Z,-6.06
2018-03-01T07:22:46.322Z,-5.98
2018-03-01T07:25:12.054Z,-5.95
2018-03-01T07:27:37.825Z,-5.84
2018-03-01T07:30:03.571Z,-5.90
2018-03-01T07:32:29.338Z,-5.97
2018-03-01T07:34:55.086Z,-5.99
2018-03-01T07:37:20.826Z,-5.98
2018-03-01T07:39:46.571Z,-5.98
2018-03-01T07:42:12.297Z,-5.87
2018-03-01T07:44:38.060Z,-5.92
2018-03-01T07:47:03.809Z,-5.97
2018-03-01T07:49:29.550Z,-5.96
2018-03-01T07:51:55.302Z,-5.86
2018-03-01T07:54:21.059Z,-5.81
2018-03-01T07:56:46.785Z,-5.79
2018-03-01T07:59:12.525Z,-5.49
2018-03-01T08:01:38.274Z,-5.66
2018-03-01T08:04:04.045Z,-5.56
2018-03-01T08:06:29.824Z,-5.57
2018-03-01T08:08:55.590Z,-5.60
2018-03-01T08:11:21.349Z,-5.51
2018-03-01T08:13:47.097Z,-5.27
2018-03-01T08:16:12.859Z,-5.03
2018-03-01T08:18:38.630Z,-5.15
2018-03-01T08:21:04.370Z,-5.04
2018-03-01T08:23:30.126Z,-4.94
2018-03-01T08:25:55.944Z,-4.87
2018-03-01T08:28:21.696Z,-4.85
2018-03-01T08:30:47.442Z,-4.83
2018-03-01T08:33:13.185Z,-5.07
2018-03-01T08:35:38.957Z,-4.90
2018-03-01T08:38:04.702Z,-4.73
2018-03-01T08:40:30.454Z,-4.91
2018-03-01T08:42:56.199Z,-4.60
2018-03-01T08:45:21.960Z,-4.62
2018-03-01T08:47:47.694Z,-4.56
2018-03-01T08:50:13.458Z,-4.78
2018-03-01T08:52:39.192Z,-4.62
2018-03-01T08:55:04.935Z,-4.47
2018-03-01T08:57:30.667Z,-4.25
2018-03-01T08:59:56.441Z,-4.56
2018-03-01T09:02:22.179Z,-4.38
2018-03-01T09:04:47.919Z,-4.35
2018-03-01T09:07:13.668Z,-4.06
2018-03-01T09:09:39.412Z,-4.27
2018-03-01T09:12:05.174Z,-4.40
2018-03-01T09:14:30.921Z,-4.25
2018-03-01T09:16:56.669Z,-4.22
2018-03-01T09:19:22.421Z,-4.16
2018-03-01T09:21:48.152Z,-4.01
2018-03-01T09:24:13.904Z,-4.02
2018-03-01T09:26:39.646Z,-3.56
2018-03-01T09:29:05.382Z,-3.80
2018-03-01T09:31:31.137Z,-3.73
2018-03-01T09:33:56.898Z,-3.81
2018-03-01T09:36:22.618Z,-3.49
2018-03-01T09:38:48.361Z,-3.26
2018-03-01T09:41:14.087Z,-3.53
2018-03-01T09:43:39.815Z,-3.15
2018-03-01T09:46:05.543Z,-3.37
2018-03-01T09:48:31.287Z,-3.59
2018-03-01T09:50:57.014Z,-3.46
2018-03-01T09:53:22.757Z,-3.58
2018-03-01T09:55:48.486Z,-3.85
2018-03-01T09:58:14.231Z,-3.64
2018-03-01T10:00:39.964Z,-3.61
2018-03-01T10:03:05.695Z,-3.60
2018-03-01T10:05:31.430Z,-3.07
2018-03-01T10:07:57.162Z,-2.88
2018-03-01T10:10:22.911Z,-3.24
2018-03-01T10:12:48.636Z,-3.42
2018-03-01T10:15:14.372Z,-3.40
2018-03-01T10:17:40.094Z,-3.27
2018-03-01T10:20:05.824Z,-3.45
2018-03-01T10:22:31.567Z,-3.74
2018-03-01T10:24:57.295Z,-3.28
2018-03-01T10:27:25.915Z,-3.09
2018-03-01T10:29:51.638Z,-2.93
2018-03-01T10:32:17.353Z,-2.87
2018-03-01T10:34:43.090Z,-3.00
2018-03-01T10:37:08.879Z,-2.86
2018-03-01T10:39:34.557Z,-3.00
2018-03-01T10:42:00.278Z,-2.91
2018-03-01T10:44:26.018Z,-2.97
2018-03-01T10:46:51.746Z,-2.56
2018-03-01T10:49:17.486Z,-2.47
2018-03-01T10:51:43.218Z,-2.37
2018-03-01T10:54:08.949Z,-2.78
2018-03-01T10:56:34.670Z,-2.67
2018-03-01T10:59:00.402Z,-2.74
2018-03-01T11:01:31.974Z,-2.46
2018-03-01T11:03:57.693Z,-2.77
2018-03-01T11:06:23.430Z,-2.66
2018-03-01T11:08:49.186Z,-2.49
2018-03-01T11:11:14.947Z,-2.33
2018-03-01T11:13:40.690Z,-2.59
2018-03-01T11:16:06.432Z,-2.72
2018-03-01T11:18:32.169Z,-2.53
2018-03-01T11:20:57.926Z,-2.42
2018-03-01T11:23:23.692Z,-2.54
2018-03-01T11:25:49.414Z,-2.40
2018-03-01T11:28:15.145Z,-2.55
2018-03-01T11:30:40.862Z,-2.53
2018-03-01T11:33:06.593Z,-2.47
2018-03-01T11:35:32.349Z,-2.32
2018-03-01T11:37:58.082Z,-1.81
2018-03-01T11:40:23.810Z,-1.58
2018-03-01T11:42:49.543Z,-2.03
2018-03-01T11:45:15.263Z,-2.02
2018-03-01T11:47:40.999Z,-1.90
2018-03-01T11:50:06.727Z,-2.23
2018-03-01T11:52:32.446Z,-2.31
2018-03-01T11:54:58.176Z,-2.02
2018-03-01T11:57:23.898Z,-1.98
2018-03-01T11:59:49.610Z,-2.44
2018-03-01T12:02:15.337Z,-2.20
2018-03-01T12:04:41.062Z,-2.29
2018-03-01T12:07:06.780Z,-2.22
2018-03-01T12:09:32.514Z,-2.25
2018-03-01T12:11:58.250Z,-2.32
2018-03-01T12:14:23.967Z,-2.32
2018-03-01T12:16:49.700Z,-2.34
2018-03-01T12:19:15.406Z,-2.30
2018-03-01T12:21:41.122Z,-2.02
2018-03-01T12:24:06.854Z,-2.29
2018-03-01T12:26:32.586Z,-2.15
2018-03-01T12:28:58.314Z,-2.49
2018-03-01T12:31:24.038Z,-2.12
2018-03-01T12:33:49.766Z,-2.46
2018-03-01T12:36:15.486Z,-2.21
2018-03-01T12:38:41.212Z,-1.83
2018-03-01T12:41:06.939Z,-2.13
2018-03-01T12:43:32.680Z,-1.93
2018-03-01T12:45:58.457Z,-2.21
2018-03-01T12:48:24.151Z,-2.55
2018-03-01T12:50:49.978Z,-2.33
2018-03-01T12:53:15.772Z,-2.35
2018-03-01T12:55:41.855Z,-2.26
2018-03-01T12:58:07.723Z,-2.19
2018-03-01T13:00:33.549Z,-2.00
2018-03-01T13:02:59.414Z,-2.04
2018-03-01T13:05:25.335Z,-2.16
2018-03-01T13:07:51.697Z,-2.10
2018-03-01T13:10:17.584Z,-1.87
2018-03-01T13:12:43.620Z,-1.52
2018-03-01T13:15:11.163Z,-1.62
2018-03-01T13:17:36.906Z,-2.20
2018-03-01T13:20:02.647Z,-2.01
2018-03-01T13:22:30.218Z,-2.40
2018-03-01T13:24:58.034Z,-2.59
2018-03-01T13:27:23.831Z,-2.41
2018-03-01T13:29:49.571Z,-2.40
2018-03-01T13:35:17.589Z,-2.20
2018-03-01T13:37:43.337Z,-2.12
2018-03-01T13:40:09.061Z,-2.28
2018-03-01T13:42:37.672Z,-2.69
2018-03-01T13:45:03.428Z,-2.77
2018-03-01T13:47:32.372Z,-2.81
2018-03-01T13:49:58.412Z,-2.85
2018-03-01T13:52:24.391Z,-2.80
2018-03-01T13:54:51.174Z,-2.69
2018-03-01T13:57:17.246Z,-2.70
2018-03-01T13:59:43.084Z,-2.63
2018-03-01T14:02:08.986Z,-2.85
2018-03-01T14:04:35.277Z,-2.84
2018-03-01T14:10:09.717Z,-2.90
2018-03-01T14:12:36.624Z,-2.87
2018-03-01T14:15:09.434Z,-2.75
2018-03-01T14:17:41.493Z,-2.70
2018-03-01T14:20:10.419Z,-2.73
2018-03-01T14:22:42.330Z,-2.71
2018-03-01T14:25:10.378Z,-2.66
2018-03-01T14:27:38.449Z,-2.62
2018-03-01T14:30:05.650Z,-2.48
2018-03-01T14:32:31.651Z,-2.37
2018-03-01T14:34:57.608Z,-2.30
2018-03-01T14:37:23.515Z,-2.48
2018-03-01T14:39:49.409Z,-2.33
2018-03-01T14:42:15.452Z,-2.14
2018-03-01T14:44:41.317Z,-2.33
2018-03-01T14:47:07.187Z,-2.88
2018-03-01T14:49:32.984Z,-2.41
2018-03-01T14:51:58.958Z,-2.66
2018-03-01T14:54:24.903Z,-2.66
2018-03-01T14:56:50.692Z,-2.69
2018-03-01T14:59:16.614Z,-2.73
2018-03-01T15:01:42.585Z,-2.69
2018-03-01T15:04:08.346Z,-2.73
2018-03-01T15:06:34.113Z,-2.74
2018-03-01T15:08:59.880Z,-2.92
2018-03-01T15:11:25.957Z,-2.68
2018-03-01T15:13:51.768Z,-2.78
2018-03-01T15:16:17.585Z,-2.73
2018-03-01T15:18:43.454Z,-2.72
2018-03-01T15:21:09.437Z,-2.94
2018-03-01T15:23:35.276Z,-2.88
2018-03-01T15:26:01.073Z,-2.87
2018-03-01T15:28:26.859Z,-2.68
2018-03-01T15:30:52.762Z,-2.93
2018-03-01T15:33:18.722Z,-3.02
2018-03-01T15:35:44.537Z,-2.97
2018-03-01T15:38:10.337Z,-3.03
2018-03-01T15:40:36.152Z,-3.08
2018-03-01T15:43:02.004Z,-3.06
2018-03-01T15:45:27.904Z,-2.95
2018-03-01T15:47:53.765Z,-2.99
2018-03-01T15:50:19.588Z,-3.05
2018-03-01T15:52:45.423Z,-3.02
2018-03-01T15:55:11.294Z,-2.96
2018-03-01T15:57:37.159Z,-2.93
2018-03-01T16:00:03.020Z,-3.12
2018-03-01T16:02:28.900Z,-3.09
2018-03-01T16:04:54.746Z,-3.13
2018-03-01T16:07:20.727Z,-3.19
2018-03-01T16:09:46.554Z,-3.28
2018-03-01T16:12:12.486Z,-3.14
2018-03-01T16:14:38.242Z,-3.16
2018-03-01T16:17:03.977Z,-3.20
2018-03-01T16:19:29.706Z,-3.32
2018-03-01T16:21:55.444Z,-3.36
2018-03-01T16:24:21.178Z,-3.37
2018-03-01T16:26:46.911Z,-3.40
2018-03-01T16:29:12.642Z,-3.38
2018-03-01T16:31:38.390Z,-3.37
2018-03-01T16:34:04.122Z,-3.35
2018-03-01T16:36:29.859Z,-3.35
2018-03-01T16:38:55.573Z,-3.35
2018-03-01T16:41:21.302Z,-3.46
2018-03-01T16:43:47.018Z,-3.40
2018-03-01T16:46:12.754Z,-3.44
2018-03-01T16:48:38.495Z,-3.48
2018-03-01T16:51:04.240Z,-3.50
2018-03-01T16:53:29.974Z,-3.46
2018-03-01T16:55:55.714Z,-3.44
2018-03-01T16:58:21.430Z,-3.45
2018-03-01T17:00:47.179Z,-3.38
2018-03-01T17:03:14.417Z,-3.49
2018-03-01T17:05:40.295Z,-3.49
2018-03-01T17:08:06.030Z,-3.54
2018-03-01T17:10:31.773Z,-3.50
2018-03-01T17:12:57.498Z,-3.46
2018-03-01T17:15:23.214Z,-3.47
2018-03-01T17:17:48.941Z,-3.45
2018-03-01T17:20:14.675Z,-3.46
2018-03-01T17:22:40.432Z,-3.49
2018-03-01T17:25:06.169Z,-3.50
2018-03-01T17:27:31.910Z,-3.52
2018-03-01T17:29:57.656Z,-3.56
2018-03-01T17:32:23.396Z,-3.55
2018-03-01T17:34:49.137Z,-3.52
2018-03-01T17:37:15.091Z,-3.56
2018-03-01T17:39:40.825Z,-3.56
2018-03-01T17:42:06.558Z,-3.54
2018-03-01T17:44:32.293Z,-3.55
2018-03-01T17:46:58.054Z,-3.55
2018-03-01T17:49:23.783Z,-3.52
2018-03-01T17:51:49.518Z,-3.53
2018-03-01T17:54:15.272Z,-3.56
2018-03-01T17:56:40.998Z,-3.60
2018-03-01T17:59:06.740Z,-3.66
2018-03-01T18:01:32.465Z,-3.75
2018-03-01T18:03:58.207Z,-3.81
2018-03-01T18:06:23.942Z,-3.85
2018-03-01T18:08:49.698Z,-3.89
2018-03-01T18:11:15.436Z,-3.92
2018-03-01T18:13:41.163Z,-3.97
2018-03-01T18:16:06.895Z,-4.04
2018-03-01T18:18:32.628Z,-4.04
2018-03-01T18:20:58.427Z,-4.07
2018-03-01T18:23:24.131Z,-4.16
2018-03-01T18:25:49.870Z,-4.22
2018-03-01T18:28:15.645Z,-4.13
2018-03-01T18:30:41.387Z,-4.17
2018-03-01T18:33:07.112Z,-4.21
2018-03-01T18:35:32.873Z,-4.27
2018-03-01T18:37:59.019Z,-4.25
2018-03-01T18:40:24.823Z,-4.29
2018-03-01T18:42:50.542Z,-4.33
2018-03-01T18:45:16.270Z,-4.34
2018-03-01T18:47:41.994Z,-4.37
2018-03-01T18:50:07.794Z,-4.36
2018-03-01T18:52:33.593Z,-4.35
2018-03-01T18:54:59.391Z,-4.30
2018-03-01T18:57:25.135Z,-4.34
2018-03-01T18:59:50.969Z,-4.36
2018-03-01T19:02:16.810Z,-4.34
2018-03-01T19:04:42.680Z,-4.36
2018-03-01T19:07:08.510Z,-4.28
2018-03-01T19:09:34.390Z,-4.27
2018-03-01T19:12:00.137Z,-4.20
2018-03-01T19:14:25.890Z,-4.16
2018-03-01T19:16:51.635Z,-4.23
2018-03-01T19:19:18.116Z,-4.18
2018-03-01T19:21:44.037Z,-4.27
2018-03-01T19:24:11.664Z,-4.31
2018-03-01T19:26:37.938Z,-4.34
2018-03-01T19:29:04.880Z,-4.47
2018-03-01T19:31:31.006Z,-4.52
2018-03-01T19:33:57.172Z,-4.54
2018-03-01T19:36:22.952Z,-4.54
2018-03-01T19:38:48.715Z,-4.59
2018-03-01T19:41:14.465Z,-4.64
2018-03-01T19:43:40.219Z,-4.67
2018-03-01T19:46:06.096Z,-4.67
2018-03-01T19:48:32.266Z,-4.69
2018-03-01T19:50:58.022Z,-4.74
2018-03-01T19:53:23.778Z,-4.69
2018-03-01T19:55:49.513Z,-4.74
2018-03-01T19:58:15.242Z,-4.91
2018-03-01T20:00:41.010Z,-4.92
2018-03-01T20:03:06.771Z,-4.94
2018-03-01T20:05:32.527Z,-4.99
2018-03-01T20:07:58.296Z,-4.95
2018-03-01T20:10:24.042Z,-4.97
2018-03-01T20:12:49.803Z,-5.06
2018-03-01T20:15:16.836Z,-5.03
2018-03-01T20:17:43.758Z,-5.04
2018-03-01T20:20:09.552Z,-5.03
2018-03-01T20:22:35.494Z,-5.06
2018-03-01T20:25:01.241Z,-5.09
2018-03-01T20:27:27.007Z,-5.07
2018-03-01T20:29:52.761Z,-5.12
2018-03-01T20:32:18.737Z,-5.05
2018-03-01T20:34:44.473Z,-5.09
2018-03-01T20:37:10.220Z,-5.11
2018-03-01T20:39:35.980Z,-5.10
2018-03-01T20:42:01.769Z,-5.11
2018-03-01T20:44:27.483Z,-5.09
2018-03-01T20:46:53.247Z,-5.03
2018-03-01T20:49:18.998Z,-5.08
2018-03-01T20:51:44.731Z,-5.04
2018-03-01T20:54:10.485Z,-5.04
2018-03-01T20:56:36.235Z,-5.04
2018-03-01T20:59:01.988Z,-5.11
2018-03-01T21:01:27.730Z,-5.04
2018-03-01T21:03:53.490Z,-5.07
2018-03-01T21:06:19.253Z,-4.91
2018-03-01T21:08:44.999Z,-4.80
2018-03-01T21:11:10.763Z,-4.82
2018-03-01T21:13:36.514Z,-4.85
2018-03-01T21:16:02.259Z,-4.76
2018-03-01T21:18:28.015Z,-4.75
2018-03-01T21:20:53.820Z,-4.76
2018-03-01T21:23:19.572Z,-4.74
2018-03-01T21:25:45.333Z,-4.68
2018-03-01T21:28:11.103Z,-4.59
2018-03-01T21:30:36.877Z,-4.53
2018-03-01T21:33:02.614Z,-4.66
2018-03-01T21:35:28.355Z,-4.81
2018-03-01T21:37:54.105Z,-4.85
2018-03-01T21:40:19.853Z,-4.94
2018-03-01T21:42:45.609Z,-4.97
2018-03-01T21:45:11.374Z,-4.98
2018-03-01T21:47:37.098Z,-5.02
2018-03-01T21:50:02.850Z,-4.96
2018-03-01T21:52:28.583Z,-4.99
2018-03-01T21:54:54.333Z,-4.97
2018-03-01T21:57:20.079Z,-4.91
2018-03-01T21:59:45.838Z,-5.02
2018-03-01T22:02:11.587Z,-5.03
2018-03-01T22:04:37.332Z,-5.12
2018-03-01T22:07:03.102Z,-5.09
2018-03-01T22:09:28.833Z,-5.17
2018-03-01T22:11:54.587Z,-5.11
2018-03-01T22:14:20.343Z,-5.16
2018-03-01T22:16:46.095Z,-5.20
2018-03-01T22:19:11.855Z,-5.28
2018-03-01T22:21:37.598Z,-5.32
2018-03-01T22:24:03.373Z,-5.24
2018-03-01T22:26:29.130Z,-5.37
2018-03-01T22:28:54.871Z,-5.45
2018-03-01T22:31:20.616Z,-5.55
2018-03-01T22:33:46.362Z,-5.56
2018-03-01T22:36:12.105Z,-5.56
2018-03-01T22:38:37.850Z,-5.67
2018-03-01T22:41:03.611Z,-5.72
2018-03-01T22:43:29.345Z,-5.72
2018-03-01T22:45:55.079Z,-5.79
2018-03-01T22:48:20.882Z,-5.81
2018-03-01T22:50:46.623Z,-5.83
2018-03-01T22:53:12.381Z,-5.74
2018-03-01T22:55:38.114Z,-5.76
2018-03-01T22:58:03.895Z,-5.78
2018-03-01T23:00:42.070Z,-5.80
2018-03-01T23:03:07.809Z,-5.78
2018-03-01T23:05:33.550Z,-5.85
2018-03-01T23:07:59.282Z,-5.97
2018-03-01T23:10:25.027Z,-6.02
2018-03-01T23:12:50.770Z,-6.10
2018-03-01T23:15:16.555Z,-6.07
2018-03-01T23:17:42.284Z,-6.04
2018-03-01T23:20:08.011Z,-6.03
2018-03-01T23:22:33.754Z,-5.99
2018-03-01T23:24:59.498Z,-6.02
2018-03-01T23:27:25.262Z,-6.09
2018-03-01T23:29:51.006Z,-6.10
2018-03-01T23:32:16.754Z,-6.18
2018-03-01T23:34:42.490Z,-6.30
2018-03-01T23:37:08.247Z,-6.37
2018-03-01T23:39:33.995Z,-6.37
2018-03-01T23:41:59.746Z,-6.48
2018-03-01T23:44:25.487Z,-6.44
2018-03-01T23:46:51.227Z,-6.50
2018-03-01T23:49:16.981Z,-6.46
2018-03-01T23:51:42.731Z,-6.52
2018-03-01T23:54:08.488Z,-6.48
2018-03-01T23:56:34.262Z,-6.55
2018-03-01T23:59:00.098Z,-6.57
